Ashe County, NC

6:17 PM EST on February 27, 2015 (GMT -0500)
Boone | Change Station
CLOSE
Current Station
Airport
Location: Boone,
Elevation: 3146 ft
Nearby Weather Stations
Active Advisory: Special Statement

Elev 3146 ft 36.20 °N, 81.65 °W | Updated 22 minutes ago

Clear
Clear
26 °F
Feels Like 17 °F
N
10
Wind Variable Wind from WNW
Gusts 16 mph

Today
High -- | Low -- °F
--% Chance of Precip.
Yesterday
High -- | Low -- °F
Precip. -- in
6:59 AM 6:18 PM
Waxing Gibbous, 72% visible
Pressure 30.33 in
Visibility 10.0 miles
Clouds Clear
Windchill 17 °F
Dew Point 14 °F
Humidity 60%
Rainfall 0.00 in
Snow Depth Not available.
UV 0 out of 12
Pollen 2.00 out of 12
Air Quality Not available.
Flu Activity Not available.
METAR KTNB 272255Z AUTO 30009G14KT 10SM CLR M03/M10 A3033 RMK AO2 T10311099

More Conditions Fewer Conditions

Pressure 30.33 in
Visibility 10.0 miles
Clouds Clear
Windchill 17 °F
Dew Point 14 °F
Humidity 60%
Rainfall 0.00 in
Snow Depth Not available.
UV 0 out of 12
Pollen 2.00 out of 12
Air Quality Not available.
Flu Activity Not available.
METAR KTNB 272255Z AUTO 30009G14KT 10SM CLR M03/M10 A3033 RMK AO2 T10311099

More Conditions Fewer Conditions

10-Day Weather Forecast

Almanac

Astronomy

Feb. 27, 2015 Rise Set
Actual Time
Civil Twilight
Nautical Twilight
Astronomical Twilight
Moon
Length of Visible Light
Length of Day
Tomorrow will be .
, % of the Moon is Illuminated

Today's Extremes

State Highs State Lows

Community

WunderPhotos

Upload Photos

1,800,874 photos uploaded!

WunderBlogs® & News

Nearby

Air Quality

  Air Quality AQ Index Pollutant
Not available.

Snow Depth

Station Depth Elevation

Earthquake Activity

City Distance Mag. Time & Date
Minimum magnitude displayed is 2.5.

Coastal Water Temperatures

Place Temperature

Nearby Weather Stations

Special Statement
Statement as of 2:59 PM EST on February 27, 2015

... Isolated black ice formation possible tonight...

Limited amounts of snow melted today thanks to below freezing
temperatures and only filtered sunshine on surfaces to warm them.
However... where any surface moisture formed... it is expected to
refreeze at sunset... but still look like it is only wet. This may
cause a few new slippery spots on roads... sidewalks and parking
lots.